Airfield :







YOU CAN JOIN US ON...

 
LOGIN :

Register | Disclaimer

   EN    FR    IT 

 









Legend :    VFR   Marginal VFR   IFR   Intensive IFR   Very Intensive IFR
Visi :
Ceiling :
>= 8 km
>= 3000ft
5 to 8 km
1000 to 3000 ft
1500m to 5 km
500 to 1000 ft
800 to 1500m
200 to 500 ft
< 800m
< 200 ft
Symbols :   Thunderstorms  Fog  Heavy snow  Heavy precipitations  Wind > 20 kt







- Airport Elevation : 92 ft
- IATA code : YZX


CYZX - CFB Greenwood

CURRENT METAR :
  • 181200Z 36010KT 15SM FEW040 FEW250 09/06 A3026 RMK CU1CI1 SLP250

EXPIRED METARs :
  • 181100Z 25003KT 15SM BKN045 05/03 A3025 RMK SC6 SLP245
  • 181000Z 17002KT 15SM OVC040 03/03 A3024 RMK SC8 SLP240

TAF TAF CYZX
Valid from the 18 at 12:00 until the 19 at 12:00 UTC


181130Z 1812/1912 VRB03KT P6SM SCT040
TEMPO 1812/1818 BKN040
BECMG 1812/1814 35012KT
FM181800 36012KT P6SM SCT030
FM182000 02012KT P6SM SKC
BECMG 1823/1901 VRB03KT
FM190500 VRB03KT P6SM FEW006
PROB30 1905/1911 1SM BR OVC006 RMK NXT FCST BY 181800Z
No reported NOTAMs for that airfield.



MET'MAP, your aeronautical weather chart ! - Copyright ORBIFLY December 2007 - Disclaimer

ORBIFLY MET'MAP TEAM :

Programming & Development : Alexandra Zaïnal
Concept & Development : Baudouin d'Aumeries
Co-Development & Prog : Marc-Olivier Méhu
Technical & hardware support : Manuel Goepfert

Contact : metmap@orbifly.com




SOURCES & CREDITS :

   NOAA